sensor_id;sensor_type;location;lat;lon;timestamp;pressure;altitude;pressure_sealevel;temperature;humidity
54900;BME280;40801;41.924;25.562;2022-07-04T00:00:37;99679.06;;;20.22;50.10
54900;BME280;40801;41.924;25.562;2022-07-04T00:03:02;99679.72;;;20.16;50.41
54900;BME280;40801;41.924;25.562;2022-07-04T00:05:28;99675.91;;;20.20;50.52
54900;BME280;40801;41.924;25.562;2022-07-04T00:07:53;99676.63;;;20.17;50.47
54900;BME280;40801;41.924;25.562;2022-07-04T00:10:19;99682.03;;;20.14;50.38
54900;BME280;40801;41.924;25.562;2022-07-04T00:12:46;99681.41;;;20.01;50.74
54900;BME280;40801;41.924;25.562;2022-07-04T00:15:13;99684.78;;;19.94;50.66
54900;BME280;40801;41.924;25.562;2022-07-04T00:17:39;99685.66;;;19.98;50.84
54900;BME280;40801;41.924;25.562;2022-07-04T00:20:06;99683.84;;;19.87;51.08
54900;BME280;40801;41.924;25.562;2022-07-04T00:22:32;99683.19;;;19.93;50.81
54900;BME280;40801;41.924;25.562;2022-07-04T00:24:58;99679.94;;;19.88;50.93
54900;BME280;40801;41.924;25.562;2022-07-04T00:27:23;99684.56;;;19.84;51.29
54900;BME280;40801;41.924;25.562;2022-07-04T00:29:50;99682.25;;;19.86;51.27
54900;BME280;40801;41.924;25.562;2022-07-04T00:32:15;99683.78;;;19.83;51.49
54900;BME280;40801;41.924;25.562;2022-07-04T00:34:41;99676.34;;;19.84;51.54
54900;BME280;40801;41.924;25.562;2022-07-04T00:37:06;99675.19;;;19.85;51.34
54900;BME280;40801;41.924;25.562;2022-07-04T00:39:31;99670.88;;;19.84;51.50
54900;BME280;40801;41.924;25.562;2022-07-04T00:41:57;99671.22;;;19.82;51.70
54900;BME280;40801;41.924;25.562;2022-07-04T00:44:22;99667.63;;;19.78;51.47
54900;BME280;40801;41.924;25.562;2022-07-04T00:46:49;99670.44;;;19.82;51.52
54900;BME280;40801;41.924;25.562;2022-07-04T00:49:16;99668.34;;;19.75;51.88
54900;BME280;40801;41.924;25.562;2022-07-04T00:51:43;99665.63;;;19.75;51.87
54900;BME280;40801;41.924;25.562;2022-07-04T00:54:14;99665.63;;;19.75;51.97
54900;BME280;40801;41.924;25.562;2022-07-04T00:56:42;99670.38;;;19.78;51.76
54900;BME280;40801;41.924;25.562;2022-07-04T00:59:08;99665.56;;;19.71;52.19
54900;BME280;40801;41.924;25.562;2022-07-04T01:01:34;99667.84;;;19.69;52.08
54900;BME280;40801;41.924;25.562;2022-07-04T01:04:02;99661.94;;;19.67;52.21
54900;BME280;40801;41.924;25.562;2022-07-04T01:06:28;99669.47;;;19.55;52.61
54900;BME280;40801;41.924;25.562;2022-07-04T01:08:54;99661.88;;;19.48;52.65
54900;BME280;40801;41.924;25.562;2022-07-04T01:11:19;99667.00;;;19.49;52.64
54900;BME280;40801;41.924;25.562;2022-07-04T01:13:45;99661.81;;;19.44;53.00
54900;BME280;40801;41.924;25.562;2022-07-04T01:16:11;99656.63;;;19.39;52.61
54900;BME280;40801;41.924;25.562;2022-07-04T01:18:37;99663.56;;;19.37;52.77
54900;BME280;40801;41.924;25.562;2022-07-04T01:21:03;99660.53;;;19.23;53.34
54900;BME280;40801;41.924;25.562;2022-07-04T01:23:29;99655.41;;;19.21;53.51
54900;BME280;40801;41.924;25.562;2022-07-04T01:25:56;99654.69;;;19.24;53.35
54900;BME280;40801;41.924;25.562;2022-07-04T01:28:22;99651.44;;;19.18;53.35
54900;BME280;40801;41.924;25.562;2022-07-04T01:30:48;99649.41;;;19.15;53.54
54900;BME280;40801;41.924;25.562;2022-07-04T01:33:13;99641.13;;;19.12;53.44
54900;BME280;40801;41.924;25.562;2022-07-04T01:35:40;99653.03;;;19.19;53.45
54900;BME280;40801;41.924;25.562;2022-07-04T01:38:05;99646.78;;;19.19;53.27
54900;BME280;40801;41.924;25.562;2022-07-04T01:40:31;99644.91;;;19.23;53.05
54900;BME280;40801;41.924;25.562;2022-07-04T01:42:57;99644.19;;;19.26;53.21
54900;BME280;40801;41.924;25.562;2022-07-04T01:45:23;99652.31;;;19.23;53.46
54900;BME280;40801;41.924;25.562;2022-07-04T01:47:49;99644.19;;;19.26;53.10
54900;BME280;40801;41.924;25.562;2022-07-04T01:50:15;99651.53;;;19.22;53.34
54900;BME280;40801;41.924;25.562;2022-07-04T01:52:41;99647.47;;;19.16;53.41
54900;BME280;40801;41.924;25.562;2022-07-04T01:55:08;99645.91;;;19.15;53.46
54900;BME280;40801;41.924;25.562;2022-07-04T01:57:33;99643.44;;;19.10;53.49
54900;BME280;40801;41.924;25.562;2022-07-04T01:59:59;99640.25;;;19.08;53.48
54900;BME280;40801;41.924;25.562;2022-07-04T02:02:43;99636.28;;;19.05;53.33
54900;BME280;40801;41.924;25.562;2022-07-04T02:05:08;99638.50;;;19.00;53.55
54900;BME280;40801;41.924;25.562;2022-07-04T02:07:34;99645.81;;;18.96;53.85
54900;BME280;40801;41.924;25.562;2022-07-04T02:09:59;99648.31;;;18.85;54.51
54900;BME280;40801;41.924;25.562;2022-07-04T02:12:25;99644.00;;;18.84;54.18
54900;BME280;40801;41.924;25.562;2022-07-04T02:15:09;99642.84;;;18.85;54.03
54900;BME280;40801;41.924;25.562;2022-07-04T02:17:35;99642.75;;;18.81;54.29
54900;BME280;40801;41.924;25.562;2022-07-04T02:20:01;99650.16;;;18.81;54.36
54900;BME280;40801;41.924;25.562;2022-07-04T02:22:26;99655.50;;;18.77;54.30
54900;BME280;40801;41.924;25.562;2022-07-04T02:24:52;99662.84;;;18.73;54.45
54900;BME280;40801;41.924;25.562;2022-07-04T02:27:17;99663.44;;;18.67;54.58
54900;BME280;40801;41.924;25.562;2022-07-04T02:29:43;99660.28;;;18.65;54.79
54900;BME280;40801;41.924;25.562;2022-07-04T02:32:09;99654.63;;;18.57;54.71
54900;BME280;40801;41.924;25.562;2022-07-04T02:34:34;99645.53;;;18.53;54.90
54900;BME280;40801;41.924;25.562;2022-07-04T02:37:00;99652.94;;;18.53;54.83
54900;BME280;40801;41.924;25.562;2022-07-04T02:39:25;99653.28;;;18.51;54.83
54900;BME280;40801;41.924;25.562;2022-07-04T02:41:51;99652.81;;;18.49;54.72
54900;BME280;40801;41.924;25.562;2022-07-04T02:44:16;99655.56;;;18.49;54.73
54900;BME280;40801;41.924;25.562;2022-07-04T02:46:42;99647.72;;;18.48;54.78
54900;BME280;40801;41.924;25.562;2022-07-04T02:49:08;99649.13;;;18.42;54.87
54900;BME280;40801;41.924;25.562;2022-07-04T02:51:33;99649.91;;;18.42;54.90
54900;BME280;40801;41.924;25.562;2022-07-04T02:53:59;99656.78;;;18.36;54.95
54900;BME280;40801;41.924;25.562;2022-07-04T02:56:25;99652.47;;;18.35;54.92
54900;BME280;40801;41.924;25.562;2022-07-04T02:58:50;99659.06;;;18.34;55.06
54900;BME280;40801;41.924;25.562;2022-07-04T03:01:16;99662.50;;;18.31;55.00
54900;BME280;40801;41.924;25.562;2022-07-04T03:03:43;99670.34;;;18.33;55.14
54900;BME280;40801;41.924;25.562;2022-07-04T03:06:09;99665.66;;;18.33;54.98
54900;BME280;40801;41.924;25.562;2022-07-04T03:08:34;99668.50;;;18.37;54.92
54900;BME280;40801;41.924;25.562;2022-07-04T03:11:00;99664.72;;;18.41;55.03
54900;BME280;40801;41.924;25.562;2022-07-04T03:13:26;99673.69;;;18.42;54.86
54900;BME280;40801;41.924;25.562;2022-07-04T03:15:51;99667.78;;;18.40;54.98
54900;BME280;40801;41.924;25.562;2022-07-04T03:18:18;99677.22;;;18.42;55.01
54900;BME280;40801;41.924;25.562;2022-07-04T03:20:43;99672.19;;;18.44;55.01
54900;BME280;40801;41.924;25.562;2022-07-04T03:23:09;99670.63;;;18.43;55.18
54900;BME280;40801;41.924;25.562;2022-07-04T03:25:34;99673.00;;;18.45;55.15
54900;BME280;40801;41.924;25.562;2022-07-04T03:28:00;99676.16;;;18.47;55.02
54900;BME280;40801;41.924;25.562;2022-07-04T03:30:25;99677.66;;;18.44;55.17
54900;BME280;40801;41.924;25.562;2022-07-04T03:32:51;99680.47;;;18.48;54.97
54900;BME280;40801;41.924;25.562;2022-07-04T03:35:16;99688.09;;;18.54;54.82
54900;BME280;40801;41.924;25.562;2022-07-04T03:37:41;99689.69;;;18.55;54.95
54900;BME280;40801;41.924;25.562;2022-07-04T03:40:08;99684.66;;;18.57;54.97
54900;BME280;40801;41.924;25.562;2022-07-04T03:42:33;99689.53;;;18.64;54.61
54900;BME280;40801;41.924;25.562;2022-07-04T03:44:59;99684.50;;;18.66;54.72
54900;BME280;40801;41.924;25.562;2022-07-04T03:47:24;99684.88;;;18.65;54.84
54900;BME280;40801;41.924;25.562;2022-07-04T03:49:50;99683.47;;;18.71;54.68
54900;BME280;40801;41.924;25.562;2022-07-04T03:52:15;99680.56;;;18.79;54.57
54900;BME280;40801;41.924;25.562;2022-07-04T03:54:41;99684.19;;;18.83;54.44
54900;BME280;40801;41.924;25.562;2022-07-04T03:57:06;99686.56;;;18.85;54.55
54900;BME280;40801;41.924;25.562;2022-07-04T03:59:32;99690.25;;;18.93;54.47
54900;BME280;40801;41.924;25.562;2022-07-04T04:01:57;99682.94;;;18.97;54.39
54900;BME280;40801;41.924;25.562;2022-07-04T04:04:24;99696.06;;;19.07;54.18
54900;BME280;40801;41.924;25.562;2022-07-04T04:07:08;99693.78;;;19.09;54.11
54900;BME280;40801;41.924;25.562;2022-07-04T04:09:34;99690.25;;;19.24;53.89
54900;BME280;40801;41.924;25.562;2022-07-04T04:11:59;99692.06;;;19.36;53.72
54900;BME280;40801;41.924;25.562;2022-07-04T04:14:24;99688.44;;;19.47;53.43
54900;BME280;40801;41.924;25.562;2022-07-04T04:16:51;99687.91;;;19.58;53.20
54900;BME280;40801;41.924;25.562;2022-07-04T04:19:16;99691.75;;;19.72;52.78
54900;BME280;40801;41.924;25.562;2022-07-04T04:21:42;99685.06;;;19.89;52.61
54900;BME280;40801;41.924;25.562;2022-07-04T04:24:07;99685.44;;;20.07;52.39
54900;BME280;40801;41.924;25.562;2022-07-04T04:26:33;99689.34;;;20.25;51.90
54900;BME280;40801;41.924;25.562;2022-07-04T04:28:59;99693.16;;;20.40;51.72
54900;BME280;40801;41.924;25.562;2022-07-04T04:31:24;99696.59;;;20.56;51.80
54900;BME280;40801;41.924;25.562;2022-07-04T04:33:50;99696.00;;;20.66;51.70
54900;BME280;40801;41.924;25.562;2022-07-04T04:36:15;99703.53;;;20.73;51.52
54900;BME280;40801;41.924;25.562;2022-07-04T04:38:41;99704.53;;;20.84;51.47
54900;BME280;40801;41.924;25.562;2022-07-04T04:41:06;99700.44;;;20.97;51.02
54900;BME280;40801;41.924;25.562;2022-07-04T04:43:32;99705.91;;;20.97;51.23
54900;BME280;40801;41.924;25.562;2022-07-04T04:45:57;99711.66;;;21.12;50.61
54900;BME280;40801;41.924;25.562;2022-07-04T04:48:22;99705.63;;;21.25;50.32
54900;BME280;40801;41.924;25.562;2022-07-04T04:50:48;99697.13;;;21.34;50.37
54900;BME280;40801;41.924;25.562;2022-07-04T04:53:13;99696.69;;;21.58;49.92
54900;BME280;40801;41.924;25.562;2022-07-04T04:55:39;99694.91;;;21.70;49.62
54900;BME280;40801;41.924;25.562;2022-07-04T04:58:05;99701.09;;;21.93;49.17
54900;BME280;40801;41.924;25.562;2022-07-04T05:00:31;99696.91;;;22.03;48.71
54900;BME280;40801;41.924;25.562;2022-07-04T05:02:56;99697.88;;;22.17;48.79
54900;BME280;40801;41.924;25.562;2022-07-04T05:05:22;99699.22;;;22.31;48.33
54900;BME280;40801;41.924;25.562;2022-07-04T05:07:48;99690.78;;;22.50;47.69
54900;BME280;40801;41.924;25.562;2022-07-04T05:10:13;99694.06;;;22.63;47.61
54900;BME280;40801;41.924;25.562;2022-07-04T05:12:41;99694.28;;;22.84;46.78
54900;BME280;40801;41.924;25.562;2022-07-04T05:15:07;99697.94;;;22.95;46.57
54900;BME280;40801;41.924;25.562;2022-07-04T05:17:33;99692.16;;;23.11;46.65
54900;BME280;40801;41.924;25.562;2022-07-04T05:19:58;99696.22;;;23.28;45.90
54900;BME280;40801;41.924;25.562;2022-07-04T05:22:24;99695.97;;;23.47;45.84
54900;BME280;40801;41.924;25.562;2022-07-04T05:24:49;99697.66;;;23.62;45.71
54900;BME280;40801;41.924;25.562;2022-07-04T05:27:15;99695.31;;;23.68;45.05
54900;BME280;40801;41.924;25.562;2022-07-04T05:29:40;99695.00;;;23.84;45.01
54900;BME280;40801;41.924;25.562;2022-07-04T05:32:06;99697.38;;;23.85;44.65
54900;BME280;40801;41.924;25.562;2022-07-04T05:34:31;99698.59;;;23.95;44.66
54900;BME280;40801;41.924;25.562;2022-07-04T05:36:57;99695.91;;;24.05;44.05
54900;BME280;40801;41.924;25.562;2022-07-04T05:39:22;99688.06;;;24.22;44.17
54900;BME280;40801;41.924;25.562;2022-07-04T05:41:48;99688.19;;;24.43;43.89
54900;BME280;40801;41.924;25.562;2022-07-04T05:44:13;99688.97;;;24.51;43.03
54900;BME280;40801;41.924;25.562;2022-07-04T05:46:38;99692.16;;;24.74;42.63
54900;BME280;40801;41.924;25.562;2022-07-04T05:49:04;99696.13;;;24.91;42.44
54900;BME280;40801;41.924;25.562;2022-07-04T05:51:29;99691.81;;;25.04;41.48
54900;BME280;40801;41.924;25.562;2022-07-04T05:53:54;99695.38;;;25.08;41.10
54900;BME280;40801;41.924;25.562;2022-07-04T05:56:20;99686.69;;;25.24;41.07
54900;BME280;40801;41.924;25.562;2022-07-04T05:58:46;99693.34;;;25.41;41.06
54900;BME280;40801;41.924;25.562;2022-07-04T06:01:11;99688.63;;;25.52;40.48
54900;BME280;40801;41.924;25.562;2022-07-04T06:03:37;99685.06;;;25.58;40.22
54900;BME280;40801;41.924;25.562;2022-07-04T06:06:03;99683.06;;;25.73;39.86
54900;BME280;40801;41.924;25.562;2022-07-04T06:08:29;99681.06;;;25.84;39.51
54900;BME280;40801;41.924;25.562;2022-07-04T06:10:54;99681.03;;;25.91;39.69
54900;BME280;40801;41.924;25.562;2022-07-04T06:13:20;99683.03;;;25.87;39.60
54900;BME280;40801;41.924;25.562;2022-07-04T06:15:46;99678.63;;;25.97;39.46
54900;BME280;40801;41.924;25.562;2022-07-04T06:18:11;99675.06;;;25.97;39.66
54900;BME280;40801;41.924;25.562;2022-07-04T06:20:37;99673.06;;;26.08;39.25
54900;BME280;40801;41.924;25.562;2022-07-04T06:23:05;99677.78;;;26.11;39.58
54900;BME280;40801;41.924;25.562;2022-07-04T06:25:31;99671.75;;;26.30;39.48
54900;BME280;40801;41.924;25.562;2022-07-04T06:27:56;99667.03;;;26.34;39.69
54900;BME280;40801;41.924;25.562;2022-07-04T06:30:22;99666.91;;;26.52;39.41
54900;BME280;40801;41.924;25.562;2022-07-04T06:32:49;99670.00;;;26.65;39.33
54900;BME280;40801;41.924;25.562;2022-07-04T06:35:23;99675.81;;;26.77;38.84
54900;BME280;40801;41.924;25.562;2022-07-04T06:38:07;99660.25;;;27.01;38.84
54900;BME280;40801;41.924;25.562;2022-07-04T06:40:33;99662.22;;;27.01;39.10
54900;BME280;40801;41.924;25.562;2022-07-04T06:43:00;99653.81;;;27.11;38.94
54900;BME280;40801;41.924;25.562;2022-07-04T06:45:26;99650.97;;;27.22;39.07
54900;BME280;40801;41.924;25.562;2022-07-04T06:47:51;99653.09;;;27.45;38.85
54900;BME280;40801;41.924;25.562;2022-07-04T06:50:17;99651.50;;;27.44;38.66
54900;BME280;40801;41.924;25.562;2022-07-04T06:52:43;99650.59;;;27.58;38.79
54900;BME280;40801;41.924;25.562;2022-07-04T06:55:08;99651.81;;;27.53;38.63
54900;BME280;40801;41.924;25.562;2022-07-04T06:57:34;99656.13;;;27.58;38.56
54900;BME280;40801;41.924;25.562;2022-07-04T06:59:59;99656.91;;;27.62;38.68
54900;BME280;40801;41.924;25.562;2022-07-04T07:02:25;99648.59;;;27.62;38.79
54900;BME280;40801;41.924;25.562;2022-07-04T07:04:50;99639.69;;;27.77;38.63
54900;BME280;40801;41.924;25.562;2022-07-04T07:07:16;99647.25;;;28.04;38.33
54900;BME280;40801;41.924;25.562;2022-07-04T07:09:41;99646.41;;;28.11;38.17
54900;BME280;40801;41.924;25.562;2022-07-04T07:12:07;99647.41;;;28.24;37.61
54900;BME280;40801;41.924;25.562;2022-07-04T07:14:32;99632.31;;;28.28;37.62
54900;BME280;40801;41.924;25.562;2022-07-04T07:16:58;99639.91;;;28.21;37.14
54900;BME280;40801;41.924;25.562;2022-07-04T07:19:24;99639.28;;;28.40;37.28
54900;BME280;40801;41.924;25.562;2022-07-04T07:21:50;99636.69;;;28.26;37.37
54900;BME280;40801;41.924;25.562;2022-07-04T07:24:15;99625.03;;;28.38;37.19
54900;BME280;40801;41.924;25.562;2022-07-04T07:26:41;99623.25;;;28.51;37.26
54900;BME280;40801;41.924;25.562;2022-07-04T07:29:06;99610.03;;;28.59;37.28
54900;BME280;40801;41.924;25.562;2022-07-04T07:31:32;99610.13;;;28.79;37.29
54900;BME280;40801;41.924;25.562;2022-07-04T07:33:57;99622.88;;;28.99;36.80
54900;BME280;40801;41.924;25.562;2022-07-04T07:36:22;99613.56;;;29.10;35.18
54900;BME280;40801;41.924;25.562;2022-07-04T07:38:48;99613.41;;;28.97;34.89
54900;BME280;40801;41.924;25.562;2022-07-04T07:41:13;99611.19;;;29.32;35.15
54900;BME280;40801;41.924;25.562;2022-07-04T07:43:39;99621.19;;;29.49;34.40
54900;BME280;40801;41.924;25.562;2022-07-04T07:46:06;99619.50;;;29.55;33.48
54900;BME280;40801;41.924;25.562;2022-07-04T07:48:32;99618.91;;;29.64;33.19
54900;BME280;40801;41.924;25.562;2022-07-04T07:50:57;99624.41;;;29.67;32.15
54900;BME280;40801;41.924;25.562;2022-07-04T07:53:22;99611.59;;;29.53;32.28
54900;BME280;40801;41.924;25.562;2022-07-04T07:55:48;99614.28;;;29.57;33.01
54900;BME280;40801;41.924;25.562;2022-07-04T07:58:13;99607.28;;;29.88;33.41
54900;BME280;40801;41.924;25.562;2022-07-04T08:00:39;99611.47;;;29.97;33.58
54900;BME280;40801;41.924;25.562;2022-07-04T08:03:04;99607.63;;;30.27;32.22
54900;BME280;40801;41.924;25.562;2022-07-04T08:05:49;99598.34;;;30.49;31.52
54900;BME280;40801;41.924;25.562;2022-07-04T08:08:14;99601.22;;;30.46;31.55
54900;BME280;40801;41.924;25.562;2022-07-04T08:10:40;99607.75;;;30.56;31.73
54900;BME280;40801;41.924;25.562;2022-07-04T08:13:05;99602.03;;;30.63;31.47
54900;BME280;40801;41.924;25.562;2022-07-04T08:15:31;99597.00;;;30.74;31.04
54900;BME280;40801;41.924;25.562;2022-07-04T08:17:56;99600.63;;;30.87;29.73
54900;BME280;40801;41.924;25.562;2022-07-04T08:20:22;99598.88;;;30.93;29.89
54900;BME280;40801;41.924;25.562;2022-07-04T08:22:48;99598.84;;;31.09;30.14
54900;BME280;40801;41.924;25.562;2022-07-04T08:25:13;99607.53;;;31.28;29.23
54900;BME280;40801;41.924;25.562;2022-07-04T08:27:43;99599.31;;;31.37;28.86
54900;BME280;40801;41.924;25.562;2022-07-04T08:30:09;99596.03;;;31.55;29.39
54900;BME280;40801;41.924;25.562;2022-07-04T08:32:35;99594.38;;;31.57;28.69
54900;BME280;40801;41.924;25.562;2022-07-04T08:35:02;99588.03;;;31.69;28.59
54900;BME280;40801;41.924;25.562;2022-07-04T08:37:27;99589.50;;;31.74;28.38
54900;BME280;40801;41.924;25.562;2022-07-04T08:39:54;99581.88;;;31.62;27.55
54900;BME280;40801;41.924;25.562;2022-07-04T08:42:22;99585.09;;;31.89;27.70
54900;BME280;40801;41.924;25.562;2022-07-04T08:44:52;99580.84;;;32.23;27.54
54900;BME280;40801;41.924;25.562;2022-07-04T08:47:23;99578.94;;;32.58;27.29
54900;BME280;40801;41.924;25.562;2022-07-04T08:50:10;99578.13;;;32.83;22.79
54900;BME280;40801;41.924;25.562;2022-07-04T08:52:37;99577.56;;;32.88;22.70
54900;BME280;40801;41.924;25.562;2022-07-04T08:55:08;99574.53;;;33.17;22.00
54900;BME280;40801;41.924;25.562;2022-07-04T08:57:52;99581.59;;;33.87;22.06
54900;BME280;40801;41.924;25.562;2022-07-04T09:00:38;99580.78;;;34.17;20.64
54900;BME280;40801;41.924;25.562;2022-07-04T09:03:04;99575.88;;;34.40;19.13
54900;BME280;40801;41.924;25.562;2022-07-04T09:05:30;99580.06;;;34.85;18.40
54900;BME280;40801;41.924;25.562;2022-07-04T09:07:57;99565.75;;;35.10;17.88
54900;BME280;40801;41.924;25.562;2022-07-04T09:10:23;99578.63;;;35.53;18.67
54900;BME280;40801;41.924;25.562;2022-07-04T09:12:49;99580.84;;;35.58;17.42
54900;BME280;40801;41.924;25.562;2022-07-04T09:15:15;99577.59;;;36.02;17.18
54900;BME280;40801;41.924;25.562;2022-07-04T09:17:41;99584.41;;;36.19;17.41
54900;BME280;40801;41.924;25.562;2022-07-04T09:20:18;99585.09;;;36.62;16.89
54900;BME280;40801;41.924;25.562;2022-07-04T09:22:45;99580.97;;;36.96;17.17
54900;BME280;40801;41.924;25.562;2022-07-04T09:25:11;99582.47;;;37.06;17.11
54900;BME280;40801;41.924;25.562;2022-07-04T09:27:39;99579.25;;;36.75;16.84
54900;BME280;40801;41.924;25.562;2022-07-04T09:30:05;99575.84;;;37.48;17.09
54900;BME280;40801;41.924;25.562;2022-07-04T09:32:48;99563.06;;;37.47;15.56
54900;BME280;40801;41.924;25.562;2022-07-04T09:35:16;99560.81;;;37.80;16.52
54900;BME280;40801;41.924;25.562;2022-07-04T09:37:44;99559.56;;;37.96;17.03
54900;BME280;40801;41.924;25.562;2022-07-04T09:40:30;99557.38;;;38.06;16.65
54900;BME280;40801;41.924;25.562;2022-07-04T09:42:58;99570.22;;;38.22;16.72
54900;BME280;40801;41.924;25.562;2022-07-04T09:45:25;99558.78;;;37.96;15.61
54900;BME280;40801;41.924;25.562;2022-07-04T09:47:57;99561.88;;;37.98;15.79
54900;BME280;40801;41.924;25.562;2022-07-04T09:50:26;99552.91;;;38.29;15.86
54900;BME280;40801;41.924;25.562;2022-07-04T09:53:00;99544.84;;;38.22;15.42
54900;BME280;40801;41.924;25.562;2022-07-04T09:55:34;99551.56;;;38.44;15.33
54900;BME280;40801;41.924;25.562;2022-07-04T09:58:04;99549.59;;;38.30;15.16
54900;BME280;40801;41.924;25.562;2022-07-04T10:00:32;99545.47;;;37.96;15.14
54900;BME280;40801;41.924;25.562;2022-07-04T10:03:20;99542.75;;;38.37;14.52
54900;BME280;40801;41.924;25.562;2022-07-04T10:06:07;99553.47;;;38.33;14.95
54900;BME280;40801;41.924;25.562;2022-07-04T10:08:34;99545.16;;;38.24;14.61
54900;BME280;40801;41.924;25.562;2022-07-04T10:11:00;99539.94;;;38.57;14.43
54900;BME280;40801;41.924;25.562;2022-07-04T10:13:27;99538.22;;;38.80;14.53
54900;BME280;40801;41.924;25.562;2022-07-04T10:15:52;99544.41;;;38.84;13.57
54900;BME280;40801;41.924;25.562;2022-07-04T10:18:19;99534.56;;;39.20;13.86
54900;BME280;40801;41.924;25.562;2022-07-04T10:20:46;99530.72;;;39.49;13.54
54900;BME280;40801;41.924;25.562;2022-07-04T10:23:12;99540.28;;;39.52;12.84
54900;BME280;40801;41.924;25.562;2022-07-04T10:25:38;99526.78;;;39.61;13.46
54900;BME280;40801;41.924;25.562;2022-07-04T10:28:04;99529.31;;;39.91;13.00
54900;BME280;40801;41.924;25.562;2022-07-04T10:30:33;99525.81;;;39.70;12.89
54900;BME280;40801;41.924;25.562;2022-07-04T10:33:00;99534.47;;;39.35;12.46
54900;BME280;40801;41.924;25.562;2022-07-04T10:35:55;99533.38;;;39.58;12.10
54900;BME280;40801;41.924;25.562;2022-07-04T10:38:27;99531.91;;;39.63;11.59
54900;BME280;40801;41.924;25.562;2022-07-04T10:40:56;99523.34;;;39.89;11.78
54900;BME280;40801;41.924;25.562;2022-07-04T10:49:05;99515.44;;;40.30;10.14
54900;BME280;40801;41.924;25.562;2022-07-04T10:54:32;99511.56;;;39.90;11.33
54900;BME280;40801;41.924;25.562;2022-07-04T11:02:37;99506.09;;;39.81;10.45
54900;BME280;40801;41.924;25.562;2022-07-04T11:05:11;99503.13;;;39.59;9.95
54900;BME280;40801;41.924;25.562;2022-07-04T11:17:49;99493.84;;;40.27;10.19
54900;BME280;40801;41.924;25.562;2022-07-04T11:20:17;99486.72;;;40.43;10.03
54900;BME280;40801;41.924;25.562;2022-07-04T11:22:43;99482.97;;;40.68;9.97
54900;BME280;40801;41.924;25.562;2022-07-04T11:25:10;99479.19;;;41.05;10.56
54900;BME280;40801;41.924;25.562;2022-07-04T11:27:37;99478.47;;;41.21;10.34
54900;BME280;40801;41.924;25.562;2022-07-04T11:30:03;99477.66;;;40.87;9.76
54900;BME280;40801;41.924;25.562;2022-07-04T11:32:33;99478.84;;;40.69;9.94
54900;BME280;40801;41.924;25.562;2022-07-04T11:35:00;99482.97;;;40.14;10.77
54900;BME280;40801;41.924;25.562;2022-07-04T11:37:25;99474.25;;;40.77;10.42
54900;BME280;40801;41.924;25.562;2022-07-04T11:39:52;99477.13;;;40.83;10.15
54900;BME280;40801;41.924;25.562;2022-07-04T11:42:18;99481.06;;;41.25;10.99
54900;BME280;40801;41.924;25.562;2022-07-04T11:45:03;99467.41;;;41.29;10.53
54900;BME280;40801;41.924;25.562;2022-07-04T11:47:39;99473.81;;;41.18;11.05
54900;BME280;40801;41.924;25.562;2022-07-04T11:55:09;99461.75;;;41.23;10.41
54900;BME280;40801;41.924;25.562;2022-07-04T11:57:37;99466.41;;;41.43;10.98
54900;BME280;40801;41.924;25.562;2022-07-04T12:02:32;99460.66;;;41.99;9.82
54900;BME280;40801;41.924;25.562;2022-07-04T12:04:59;99453.19;;;42.01;10.35
54900;BME280;40801;41.924;25.562;2022-07-04T12:07:26;99455.81;;;41.83;11.36
54900;BME280;40801;41.924;25.562;2022-07-04T12:09:52;99447.34;;;41.32;11.18
54900;BME280;40801;41.924;25.562;2022-07-04T12:12:18;99444.28;;;41.64;11.48
54900;BME280;40801;41.924;25.562;2022-07-04T12:17:31;99440.63;;;41.74;9.80
54900;BME280;40801;41.924;25.562;2022-07-04T12:19:58;99440.31;;;41.89;10.24
54900;BME280;40801;41.924;25.562;2022-07-04T12:24:58;99433.94;;;41.55;9.58
54900;BME280;40801;41.924;25.562;2022-07-04T12:27:25;99431.63;;;41.76;9.50
54900;BME280;40801;41.924;25.562;2022-07-04T12:29:52;99433.94;;;41.72;9.77
54900;BME280;40801;41.924;25.562;2022-07-04T12:32:18;99430.09;;;41.75;10.72
54900;BME280;40801;41.924;25.562;2022-07-04T12:34:45;99438.25;;;42.01;10.36
54900;BME280;40801;41.924;25.562;2022-07-04T12:37:13;99427.97;;;41.87;10.24
54900;BME280;40801;41.924;25.562;2022-07-04T12:39:39;99432.91;;;41.58;10.09
54900;BME280;40801;41.924;25.562;2022-07-04T12:44:30;99425.72;;;41.74;10.81
54900;BME280;40801;41.924;25.562;2022-07-04T12:46:56;99435.19;;;41.93;10.56
54900;BME280;40801;41.924;25.562;2022-07-04T12:49:21;99431.28;;;42.08;10.29
54900;BME280;40801;41.924;25.562;2022-07-04T12:51:47;99422.09;;;41.79;9.89
54900;BME280;40801;41.924;25.562;2022-07-04T12:54:12;99419.56;;;41.64;10.04
54900;BME280;40801;41.924;25.562;2022-07-04T12:56:40;99429.56;;;41.76;9.92
54900;BME280;40801;41.924;25.562;2022-07-04T12:59:09;99414.16;;;41.66;10.72
54900;BME280;40801;41.924;25.562;2022-07-04T13:01:36;99422.84;;;41.85;10.03
54900;BME280;40801;41.924;25.562;2022-07-04T13:04:02;99417.38;;;42.10;10.35
54900;BME280;40801;41.924;25.562;2022-07-04T13:06:28;99417.91;;;41.97;10.31
54900;BME280;40801;41.924;25.562;2022-07-04T13:08:54;99414.88;;;41.61;10.51
54900;BME280;40801;41.924;25.562;2022-07-04T13:11:20;99416.94;;;41.61;10.03
54900;BME280;40801;41.924;25.562;2022-07-04T13:14:04;99417.75;;;41.33;10.22
54900;BME280;40801;41.924;25.562;2022-07-04T13:16:29;99407.22;;;41.23;10.09
54900;BME280;40801;41.924;25.562;2022-07-04T13:18:54;99399.22;;;41.38;10.13
54900;BME280;40801;41.924;25.562;2022-07-04T13:21:20;99401.03;;;41.46;10.33
54900;BME280;40801;41.924;25.562;2022-07-04T13:23:45;99398.97;;;41.64;10.59
54900;BME280;40801;41.924;25.562;2022-07-04T13:26:11;99393.03;;;41.51;10.71
54900;BME280;40801;41.924;25.562;2022-07-04T13:28:36;99400.94;;;41.86;10.91